sensor_id;sensor_type;location;lat;lon;timestamp;pressure;altitude;pressure_sealevel;temperature;humidity
23261;BME280;11799;47.740;-3.390;2024-03-23T00:55:05;102460.31;;;8.22;100.00
23261;BME280;11799;47.740;-3.390;2024-03-23T00:57:30;102455.91;;;8.22;100.00
23261;BME280;11799;47.740;-3.390;2024-03-23T00:59:56;102463.69;;;8.25;100.00
23261;BME280;11799;47.740;-3.390;2024-03-23T01:02:21;102457.75;;;8.20;100.00
23261;BME280;11799;47.740;-3.390;2024-03-23T01:04:47;102457.56;;;8.25;100.00
23261;BME280;11799;47.740;-3.390;2024-03-23T01:07:13;102463.81;;;8.22;100.00
23261;BME280;11799;47.740;-3.390;2024-03-23T01:09:38;102469.75;;;8.27;100.00
23261;BME280;11799;47.740;-3.390;2024-03-23T01:12:04;102473.97;;;8.32;100.00
23261;BME280;11799;47.740;-3.390;2024-03-23T01:14:30;102468.81;;;8.28;100.00
23261;BME280;11799;47.740;-3.390;2024-03-23T01:16:55;102464.53;;;8.26;100.00
23261;BME280;11799;47.740;-3.390;2024-03-23T01:19:21;102465.16;;;8.33;100.00
23261;BME280;11799;47.740;-3.390;2024-03-23T01:21:46;102465.66;;;8.20;100.00
23261;BME280;11799;47.740;-3.390;2024-03-23T01:24:12;102454.94;;;8.05;100.00
23261;BME280;11799;47.740;-3.390;2024-03-23T01:26:38;102462.22;;;8.18;100.00
23261;BME280;11799;47.740;-3.390;2024-03-23T01:29:03;102461.56;;;8.13;100.00
23261;BME280;11799;47.740;-3.390;2024-03-23T01:31:29;102461.56;;;8.13;100.00
23261;BME280;11799;47.740;-3.390;2024-03-23T01:33:54;102461.56;;;8.13;100.00
23261;BME280;11799;47.740;-3.390;2024-03-23T01:36:20;102457.34;;;8.09;100.00
23261;BME280;11799;47.740;-3.390;2024-03-23T01:38:45;102462.53;;;8.11;100.00
23261;BME280;11799;47.740;-3.390;2024-03-23T01:41:11;102462.34;;;8.15;100.00
23261;BME280;11799;47.740;-3.390;2024-03-23T01:43:36;102448.22;;;8.18;100.00
23261;BME280;11799;47.740;-3.390;2024-03-23T01:46:02;102461.13;;;8.24;100.00
23261;BME280;11799;47.740;-3.390;2024-03-23T01:48:27;102464.00;;;8.18;100.00
23261;BME280;11799;47.740;-3.390;2024-03-23T01:50:53;102458.00;;;8.14;100.00
23261;BME280;11799;47.740;-3.390;2024-03-23T01:53:19;102453.09;;;8.07;100.00
23261;BME280;11799;47.740;-3.390;2024-03-23T01:55:47;102444.66;;;7.99;100.00
23261;BME280;11799;47.740;-3.390;2024-03-23T01:58:13;102447.41;;;7.95;100.00
23261;BME280;11799;47.740;-3.390;2024-03-23T02:00:39;102454.31;;;7.98;100.00
23261;BME280;11799;47.740;-3.390;2024-03-23T02:03:22;102456.09;;;7.98;100.00
23261;BME280;11799;47.740;-3.390;2024-03-23T02:05:48;102458.28;;;8.08;100.00
23261;BME280;11799;47.740;-3.390;2024-03-23T02:08:14;102456.78;;;8.03;100.00
23261;BME280;11799;47.740;-3.390;2024-03-23T02:10:39;102456.34;;;8.12;100.00
23261;BME280;11799;47.740;-3.390;2024-03-23T02:13:05;102461.47;;;7.94;100.00
23261;BME280;11799;47.740;-3.390;2024-03-23T02:15:30;102456.28;;;7.93;100.00
23261;BME280;11799;47.740;-3.390;2024-03-23T02:17:56;102458.06;;;7.92;100.00
23261;BME280;11799;47.740;-3.390;2024-03-23T02:20:21;102459.47;;;8.01;100.00
23261;BME280;11799;47.740;-3.390;2024-03-23T02:22:53;102449.06;;;7.98;100.00
23261;BME280;11799;47.740;-3.390;2024-03-23T02:25:18;102462.81;;;8.05;100.00
23261;BME280;11799;47.740;-3.390;2024-03-23T02:27:44;102455.38;;;8.14;100.00
23261;BME280;11799;47.740;-3.390;2024-03-23T02:30:09;102459.72;;;8.15;100.00
23261;BME280;11799;47.740;-3.390;2024-03-23T02:32:35;102457.22;;;8.12;100.00
23261;BME280;11799;47.740;-3.390;2024-03-23T02:35:01;102459.84;;;8.12;100.00
23261;BME280;11799;47.740;-3.390;2024-03-23T02:37:26;102464.59;;;8.04;100.00
23261;BME280;11799;47.740;-3.390;2024-03-23T02:39:52;102453.41;;;7.99;100.00
23261;BME280;11799;47.740;-3.390;2024-03-23T02:42:18;102460.38;;;8.00;100.00
23261;BME280;11799;47.740;-3.390;2024-03-23T02:44:44;102470.66;;;8.06;100.00
23261;BME280;11799;47.740;-3.390;2024-03-23T02:47:10;102460.63;;;8.14;100.00
23261;BME280;11799;47.740;-3.390;2024-03-23T02:49:35;102468.81;;;8.08;100.00
23261;BME280;11799;47.740;-3.390;2024-03-23T02:52:01;102464.53;;;8.06;100.00
23261;BME280;11799;47.740;-3.390;2024-03-23T02:54:27;102449.31;;;8.12;100.00
23261;BME280;11799;47.740;-3.390;2024-03-23T02:56:52;102455.38;;;8.14;100.00
23261;BME280;11799;47.740;-3.390;2024-03-23T02:59:17;102464.19;;;8.13;100.00
23261;BME280;11799;47.740;-3.390;2024-03-23T03:01:43;102456.47;;;8.09;100.00
23261;BME280;11799;47.740;-3.390;2024-03-23T03:04:08;102448.59;;;8.09;100.00
23261;BME280;11799;47.740;-3.390;2024-03-23T03:06:34;102444.06;;;8.12;100.00
23261;BME280;11799;47.740;-3.390;2024-03-23T03:08:59;102440.78;;;8.07;100.00
23261;BME280;11799;47.740;-3.390;2024-03-23T03:11:25;102445.84;;;8.12;100.00
23261;BME280;11799;47.740;-3.390;2024-03-23T03:13:51;102446.75;;;8.11;100.00
23261;BME280;11799;47.740;-3.390;2024-03-23T03:16:16;102453.78;;;8.10;100.00
23261;BME280;11799;47.740;-3.390;2024-03-23T03:18:42;102462.94;;;8.02;100.00
23261;BME280;11799;47.740;-3.390;2024-03-23T03:21:07;102460.25;;;8.03;100.00
23261;BME280;11799;47.740;-3.390;2024-03-23T03:23:39;102450.16;;;7.92;100.00
23261;BME280;11799;47.740;-3.390;2024-03-23T03:26:05;102450.91;;;7.96;100.00
23261;BME280;11799;47.740;-3.390;2024-03-23T03:28:32;102455.19;;;7.99;100.00
23261;BME280;11799;47.740;-3.390;2024-03-23T03:30:58;102459.53;;;8.00;100.00
23261;BME280;11799;47.740;-3.390;2024-03-23T03:33:24;102463.63;;;8.07;100.00
23261;BME280;11799;47.740;-3.390;2024-03-23T03:35:50;102464.66;;;8.23;100.00
23261;BME280;11799;47.740;-3.390;2024-03-23T03:38:18;102464.97;;;8.15;100.00
23261;BME280;11799;47.740;-3.390;2024-03-23T03:40:43;102462.75;;;8.06;100.00
23261;BME280;11799;47.740;-3.390;2024-03-23T03:43:09;102464.25;;;8.12;100.00
23261;BME280;11799;47.740;-3.390;2024-03-23T03:45:34;102466.56;;;8.19;100.00
23261;BME280;11799;47.740;-3.390;2024-03-23T03:48:00;102471.69;;;8.02;100.00
23261;BME280;11799;47.740;-3.390;2024-03-23T03:50:25;102467.41;;;8.00;100.00
23261;BME280;11799;47.740;-3.390;2024-03-23T03:52:51;102471.22;;;8.13;100.00
23261;BME280;11799;47.740;-3.390;2024-03-23T03:55:16;102470.16;;;7.97;100.00
23261;BME280;11799;47.740;-3.390;2024-03-23T03:57:42;102453.72;;;7.91;100.00
23261;BME280;11799;47.740;-3.390;2024-03-23T04:00:08;102456.16;;;7.96;100.00
23261;BME280;11799;47.740;-3.390;2024-03-23T04:02:37;102456.78;;;8.03;100.00
23261;BME280;11799;47.740;-3.390;2024-03-23T04:05:03;102454.94;;;8.05;100.00
23261;BME280;11799;47.740;-3.390;2024-03-23T04:07:29;102454.25;;;8.00;100.00
23261;BME280;11799;47.740;-3.390;2024-03-23T04:09:54;102435.72;;;8.03;100.00
23261;BME280;11799;47.740;-3.390;2024-03-23T04:12:20;102438.53;;;7.98;100.00
23261;BME280;11799;47.740;-3.390;2024-03-23T04:14:45;102444.84;;;7.94;100.00
23261;BME280;11799;47.740;-3.390;2024-03-23T04:17:11;102442.22;;;7.94;100.00
23261;BME280;11799;47.740;-3.390;2024-03-23T04:19:37;102436.63;;;8.02;100.00
23261;BME280;11799;47.740;-3.390;2024-03-23T04:22:02;102449.19;;;7.95;100.00
23261;BME280;11799;47.740;-3.390;2024-03-23T04:24:29;102444.34;;;7.84;100.00
23261;BME280;11799;47.740;-3.390;2024-03-23T04:26:54;102445.63;;;7.96;100.00
23261;BME280;11799;47.740;-3.390;2024-03-23T04:29:20;102437.31;;;7.85;100.00
23261;BME280;11799;47.740;-3.390;2024-03-23T04:31:45;102439.78;;;7.89;100.00
23261;BME280;11799;47.740;-3.390;2024-03-23T04:34:11;102440.50;;;7.93;100.00
23261;BME280;11799;47.740;-3.390;2024-03-23T04:36:37;102431.88;;;7.89;100.00
23261;BME280;11799;47.740;-3.390;2024-03-23T04:39:02;102443.56;;;8.04;100.00
23261;BME280;11799;47.740;-3.390;2024-03-23T04:41:28;102441.03;;;8.01;100.00
23261;BME280;11799;47.740;-3.390;2024-03-23T04:43:53;102445.03;;;7.89;100.00
23261;BME280;11799;47.740;-3.390;2024-03-23T04:46:19;102453.09;;;7.85;100.00
23261;BME280;11799;47.740;-3.390;2024-03-23T04:48:46;102454.81;;;7.86;100.00
23261;BME280;11799;47.740;-3.390;2024-03-23T04:51:20;102461.06;;;7.83;100.00
23261;BME280;11799;47.740;-3.390;2024-03-23T04:53:47;102454.56;;;7.92;100.00
23261;BME280;11799;47.740;-3.390;2024-03-23T04:56:14;102460.13;;;7.84;100.00
23261;BME280;11799;47.740;-3.390;2024-03-23T04:58:39;102467.00;;;7.88;100.00
23261;BME280;11799;47.740;-3.390;2024-03-23T05:01:05;102448.56;;;7.88;100.00
23261;BME280;11799;47.740;-3.390;2024-03-23T05:03:31;102463.06;;;7.77;100.00
23261;BME280;11799;47.740;-3.390;2024-03-23T05:05:56;102462.09;;;7.79;100.00
23261;BME280;11799;47.740;-3.390;2024-03-23T05:08:22;102467.59;;;7.95;100.00
23261;BME280;11799;47.740;-3.390;2024-03-23T05:10:47;102470.34;;;7.92;100.00
23261;BME280;11799;47.740;-3.390;2024-03-23T05:13:13;102462.09;;;7.79;100.00
23261;BME280;11799;47.740;-3.390;2024-03-23T05:15:38;102464.53;;;7.84;100.00
23261;BME280;11799;47.740;-3.390;2024-03-23T05:18:04;102468.34;;;7.77;100.00
23261;BME280;11799;47.740;-3.390;2024-03-23T05:20:31;102473.97;;;7.68;100.00
23261;BME280;11799;47.740;-3.390;2024-03-23T05:22:56;102470.03;;;7.78;100.00
23261;BME280;11799;47.740;-3.390;2024-03-23T05:25:22;102472.81;;;7.75;100.00
23261;BME280;11799;47.740;-3.390;2024-03-23T05:27:48;102478.00;;;7.76;100.00
23261;BME280;11799;47.740;-3.390;2024-03-23T05:30:13;102470.28;;;7.72;100.00
23261;BME280;11799;47.740;-3.390;2024-03-23T05:32:39;102458.97;;;7.70;100.00
23261;BME280;11799;47.740;-3.390;2024-03-23T05:35:09;102472.50;;;7.82;100.00
23261;BME280;11799;47.740;-3.390;2024-03-23T05:37:35;102470.97;;;7.77;100.00
23261;BME280;11799;47.740;-3.390;2024-03-23T05:40:01;102465.03;;;7.72;100.00
23261;BME280;11799;47.740;-3.390;2024-03-23T05:42:28;102463.50;;;7.66;100.00
23261;BME280;11799;47.740;-3.390;2024-03-23T05:44:54;102465.50;;;7.59;100.00
23261;BME280;11799;47.740;-3.390;2024-03-23T05:47:20;102474.25;;;7.60;100.00
23261;BME280;11799;47.740;-3.390;2024-03-23T05:49:46;102478.53;;;7.62;100.00
23261;BME280;11799;47.740;-3.390;2024-03-23T05:52:11;102476.19;;;7.55;100.00
23261;BME280;11799;47.740;-3.390;2024-03-23T05:54:37;102469.84;;;7.60;100.00
23261;BME280;11799;47.740;-3.390;2024-03-23T05:57:03;102467.22;;;7.60;100.00
23261;BME280;11799;47.740;-3.390;2024-03-23T05:59:29;102469.13;;;7.79;100.00
23261;BME280;11799;47.740;-3.390;2024-03-23T06:01:55;102469.44;;;7.71;100.00
23261;BME280;11799;47.740;-3.390;2024-03-23T06:04:21;102472.69;;;7.78;100.00
23261;BME280;11799;47.740;-3.390;2024-03-23T06:06:49;102465.59;;;7.80;100.00
23261;BME280;11799;47.740;-3.390;2024-03-23T06:09:15;102460.38;;;7.78;100.00
23261;BME280;11799;47.740;-3.390;2024-03-23T06:11:41;102467.47;;;7.76;100.00
23261;BME280;11799;47.740;-3.390;2024-03-23T06:14:06;102464.91;;;7.75;100.00
23261;BME280;11799;47.740;-3.390;2024-03-23T06:16:31;102463.88;;;7.79;100.00
23261;BME280;11799;47.740;-3.390;2024-03-23T06:18:57;102469.38;;;7.73;100.00
23261;BME280;11799;47.740;-3.390;2024-03-23T06:21:24;102466.81;;;7.71;100.00
23261;BME280;11799;47.740;-3.390;2024-03-23T06:23:52;102448.81;;;7.82;100.00
23261;BME280;11799;47.740;-3.390;2024-03-23T06:26:19;102459.47;;;7.79;100.00
23261;BME280;11799;47.740;-3.390;2024-03-23T06:28:45;102456.66;;;7.84;100.00
23261;BME280;11799;47.740;-3.390;2024-03-23T06:31:11;102469.19;;;7.77;100.00
23261;BME280;11799;47.740;-3.390;2024-03-23T06:33:37;102471.53;;;7.85;100.00
23261;BME280;11799;47.740;-3.390;2024-03-23T06:36:04;102473.66;;;7.75;100.00
23261;BME280;11799;47.740;-3.390;2024-03-23T06:38:30;102474.22;;;7.83;100.00
23261;BME280;11799;47.740;-3.390;2024-03-23T06:40:55;102473.00;;;7.92;100.00
23261;BME280;11799;47.740;-3.390;2024-03-23T06:43:21;102464.06;;;7.96;100.00
23261;BME280;11799;47.740;-3.390;2024-03-23T06:45:53;102459.78;;;7.93;100.00
23261;BME280;11799;47.740;-3.390;2024-03-23T06:48:19;102469.38;;;7.94;100.00
23261;BME280;11799;47.740;-3.390;2024-03-23T06:50:45;102467.47;;;7.98;100.00
23261;BME280;11799;47.740;-3.390;2024-03-23T06:53:12;102469.91;;;8.03;100.00
23261;BME280;11799;47.740;-3.390;2024-03-23T06:55:38;102475.84;;;8.08;100.00
23261;BME280;11799;47.740;-3.390;2024-03-23T06:58:03;102489.19;;;8.03;100.00
23261;BME280;11799;47.740;-3.390;2024-03-23T07:00:29;102489.94;;;8.07;100.00
23261;BME280;11799;47.740;-3.390;2024-03-23T07:02:55;102479.41;;;8.07;100.00
23261;BME280;11799;47.740;-3.390;2024-03-23T07:05:20;102480.72;;;8.17;100.00
23261;BME280;11799;47.740;-3.390;2024-03-23T07:07:46;102482.72;;;8.10;100.00
23261;BME280;11799;47.740;-3.390;2024-03-23T07:10:12;102480.47;;;8.23;100.00
23261;BME280;11799;47.740;-3.390;2024-03-23T07:12:37;102478.06;;;8.39;100.00
23261;BME280;11799;47.740;-3.390;2024-03-23T07:15:03;102486.22;;;8.33;100.00
23261;BME280;11799;47.740;-3.390;2024-03-23T07:17:29;102485.13;;;8.38;100.00
23261;BME280;11799;47.740;-3.390;2024-03-23T07:19:54;102480.13;;;8.52;100.00
23261;BME280;11799;47.740;-3.390;2024-03-23T07:22:20;102490.34;;;8.60;100.00
23261;BME280;11799;47.740;-3.390;2024-03-23T07:24:45;102497.69;;;8.72;100.00
23261;BME280;11799;47.740;-3.390;2024-03-23T07:27:11;102471.47;;;8.69;100.00
23261;BME280;11799;47.740;-3.390;2024-03-23T07:29:36;102480.94;;;8.93;100.00
23261;BME280;11799;47.740;-3.390;2024-03-23T07:32:02;102480.66;;;9.00;100.00
23261;BME280;11799;47.740;-3.390;2024-03-23T07:34:28;102477.41;;;9.13;100.00
23261;BME280;11799;47.740;-3.390;2024-03-23T07:36:53;102482.94;;;9.26;100.00
23261;BME280;11799;47.740;-3.390;2024-03-23T07:39:19;102481.81;;;9.32;100.00
23261;BME280;11799;47.740;-3.390;2024-03-23T07:41:45;102481.41;;;9.41;100.00
23261;BME280;11799;47.740;-3.390;2024-03-23T07:44:10;102476.25;;;9.56;100.00
23261;BME280;11799;47.740;-3.390;2024-03-23T07:46:36;102463.50;;;9.66;100.00
23261;BME280;11799;47.740;-3.390;2024-03-23T07:49:04;102475.09;;;9.81;100.00
23261;BME280;11799;47.740;-3.390;2024-03-23T07:51:29;102478.13;;;9.90;100.00
23261;BME280;11799;47.740;-3.390;2024-03-23T07:53:55;102485.59;;;10.00;100.00
23261;BME280;11799;47.740;-3.390;2024-03-23T07:56:20;102483.44;;;10.08;100.00
23261;BME280;11799;47.740;-3.390;2024-03-23T07:58:47;102483.34;;;10.09;100.00
23261;BME280;11799;47.740;-3.390;2024-03-23T08:01:15;102489.94;;;10.19;100.00
23261;BME280;11799;47.740;-3.390;2024-03-23T08:03:42;102499.03;;;10.31;100.00
23261;BME280;11799;47.740;-3.390;2024-03-23T08:06:15;102518.91;;;10.38;100.00
23261;BME280;11799;47.740;-3.390;2024-03-23T08:08:43;102541.13;;;10.51;100.00
23261;BME280;11799;47.740;-3.390;2024-03-23T08:11:09;102560.56;;;10.68;100.00
23261;BME280;11799;47.740;-3.390;2024-03-23T08:13:36;102582.38;;;10.71;100.00
23261;BME280;11799;47.740;-3.390;2024-03-23T08:16:02;102621.28;;;10.86;100.00
23261;BME280;11799;47.740;-3.390;2024-03-23T08:18:29;102636.03;;;10.90;100.00
23261;BME280;11799;47.740;-3.390;2024-03-23T08:21:12;102661.19;;;10.98;100.00
23261;BME280;11799;47.740;-3.390;2024-03-23T08:23:38;102681.91;;;11.07;100.00
23261;BME280;11799;47.740;-3.390;2024-03-23T08:26:09;102695.66;;;11.13;100.00
23261;BME280;11799;47.740;-3.390;2024-03-23T08:28:35;102696.91;;;11.23;100.00
23261;BME280;11799;47.740;-3.390;2024-03-23T08:31:11;102707.72;;;11.36;100.00
23261;BME280;11799;47.740;-3.390;2024-03-23T08:33:38;102685.47;;;11.23;100.00
23261;BME280;11799;47.740;-3.390;2024-03-23T08:36:08;102706.31;;;11.29;100.00
23261;BME280;11799;47.740;-3.390;2024-03-23T08:38:34;102711.31;;;11.35;100.00
23261;BME280;11799;47.740;-3.390;2024-03-23T08:41:04;102716.75;;;11.32;100.00
23261;BME280;11799;47.740;-3.390;2024-03-23T08:43:34;102725.06;;;11.42;100.00
23261;BME280;11799;47.740;-3.390;2024-03-23T08:46:14;102730.41;;;11.57;100.00
23261;BME280;11799;47.740;-3.390;2024-03-23T08:48:42;102734.19;;;11.53;100.00
23261;BME280;11799;47.740;-3.390;2024-03-23T08:51:13;102738.22;;;11.43;100.00
23261;BME280;11799;47.740;-3.390;2024-03-23T08:53:39;102748.50;;;11.32;100.00
23261;BME280;11799;47.740;-3.390;2024-03-23T08:56:06;102762.66;;;11.31;100.00
23261;BME280;11799;47.740;-3.390;2024-03-23T08:58:33;102752.03;;;11.14;100.00
23261;BME280;11799;47.740;-3.390;2024-03-23T09:01:07;102745.81;;;11.15;100.00
23261;BME280;11799;47.740;-3.390;2024-03-23T09:03:33;102737.41;;;11.07;100.00
23261;BME280;11799;47.740;-3.390;2024-03-23T09:06:01;102729.56;;;11.05;100.00
23261;BME280;11799;47.740;-3.390;2024-03-23T09:08:26;102751.50;;;11.07;100.00
23261;BME280;11799;47.740;-3.390;2024-03-23T09:10:52;102749.78;;;11.06;100.00
23261;BME280;11799;47.740;-3.390;2024-03-23T09:13:18;102741.06;;;11.04;100.00
23261;BME280;11799;47.740;-3.390;2024-03-23T09:15:48;102742.56;;;11.10;100.00
23261;BME280;11799;47.740;-3.390;2024-03-23T09:18:14;102751.75;;;11.20;100.00
23261;BME280;11799;47.740;-3.390;2024-03-23T09:20:40;102781.47;;;11.25;100.00
23261;BME280;11799;47.740;-3.390;2024-03-23T09:23:05;102762.09;;;11.24;100.00
23261;BME280;11799;47.740;-3.390;2024-03-23T09:25:31;102749.81;;;11.23;100.00
23261;BME280;11799;47.740;-3.390;2024-03-23T09:27:58;102748.09;;;11.22;100.00
23261;BME280;11799;47.740;-3.390;2024-03-23T09:30:23;102747.88;;;11.27;100.00
23261;BME280;11799;47.740;-3.390;2024-03-23T09:32:49;102791.13;;;11.26;100.00
23261;BME280;11799;47.740;-3.390;2024-03-23T09:35:14;102811.44;;;11.43;100.00
23261;BME280;11799;47.740;-3.390;2024-03-23T09:37:40;102830.09;;;11.57;100.00
23261;BME280;11799;47.740;-3.390;2024-03-23T09:40:09;102969.66;;;12.08;100.00
23261;BME280;11799;47.740;-3.390;2024-03-23T09:42:35;103068.50;;;12.78;100.00
23261;BME280;11799;47.740;-3.390;2024-03-23T09:45:01;103034.75;;;13.47;100.00
23261;BME280;11799;47.740;-3.390;2024-03-23T09:47:27;103019.38;;;14.15;100.00
23261;BME280;11799;47.740;-3.390;2024-03-23T09:49:52;103041.22;;;14.50;100.00
23261;BME280;11799;47.740;-3.390;2024-03-23T09:52:18;103042.28;;;14.92;100.00
23261;BME280;11799;47.740;-3.390;2024-03-23T09:54:44;103044.91;;;15.35;100.00
23261;BME280;11799;47.740;-3.390;2024-03-23T09:57:10;103038.31;;;15.69;100.00
23261;BME280;11799;47.740;-3.390;2024-03-23T09:59:35;103037.41;;;15.97;100.00
23261;BME280;11799;47.740;-3.390;2024-03-23T10:02:01;103041.53;;;16.15;100.00
23261;BME280;11799;47.740;-3.390;2024-03-23T10:04:41;103030.59;;;16.45;100.00
23261;BME280;11799;47.740;-3.390;2024-03-23T10:07:19;103018.06;;;16.72;100.00
23261;BME280;11799;47.740;-3.390;2024-03-23T10:09:46;103010.16;;;16.83;100.00
23261;BME280;11799;47.740;-3.390;2024-03-23T10:12:18;103019.97;;;16.96;100.00
23261;BME280;11799;47.740;-3.390;2024-03-23T10:14:44;103012.50;;;17.13;100.00
23261;BME280;11799;47.740;-3.390;2024-03-23T10:17:21;102995.00;;;17.33;100.00
23261;BME280;11799;47.740;-3.390;2024-03-23T10:19:50;102993.69;;;17.52;100.00
23261;BME280;11799;47.740;-3.390;2024-03-23T10:22:20;102982.03;;;17.65;100.00
23261;BME280;11799;47.740;-3.390;2024-03-23T10:24:46;102980.78;;;17.82;100.00
23261;BME280;11799;47.740;-3.390;2024-03-23T10:27:19;102970.84;;;17.95;100.00
23261;BME280;11799;47.740;-3.390;2024-03-23T10:29:46;102975.91;;;18.11;100.00
23261;BME280;11799;47.740;-3.390;2024-03-23T10:32:16;102971.34;;;18.24;100.00
23261;BME280;11799;47.740;-3.390;2024-03-23T10:34:42;102973.94;;;18.37;100.00
23261;BME280;11799;47.740;-3.390;2024-03-23T10:37:08;102978.69;;;18.44;100.00
23261;BME280;11799;47.740;-3.390;2024-03-23T10:39:35;102980.75;;;18.52;100.00
23261;BME280;11799;47.740;-3.390;2024-03-23T10:42:08;102976.63;;;18.59;100.00
23261;BME280;11799;47.740;-3.390;2024-03-23T10:44:35;102984.94;;;18.67;100.00
23261;BME280;11799;47.740;-3.390;2024-03-23T10:47:02;102986.41;;;18.71;100.00
23261;BME280;11799;47.740;-3.390;2024-03-23T10:49:34;102981.44;;;18.78;100.00
23261;BME280;11799;47.740;-3.390;2024-03-23T10:52:04;102962.69;;;18.78;100.00
23261;BME280;11799;47.740;-3.390;2024-03-23T10:54:32;102963.06;;;18.85;100.00
23261;BME280;11799;47.740;-3.390;2024-03-23T10:57:05;102956.72;;;18.86;100.00
23261;BME280;11799;47.740;-3.390;2024-03-23T10:59:32;102955.41;;;18.91;100.00
23261;BME280;11799;47.740;-3.390;2024-03-23T11:01:59;102934.84;;;18.92;100.00
23261;BME280;11799;47.740;-3.390;2024-03-23T11:04:37;102951.00;;;18.90;100.00
23261;BME280;11799;47.740;-3.390;2024-03-23T11:07:30;102929.72;;;19.00;100.00
23261;BME280;11799;47.740;-3.390;2024-03-23T11:09:57;102920.47;;;19.04;100.00
23261;BME280;11799;47.740;-3.390;2024-03-23T11:14:50;102906.31;;;19.13;100.00
23261;BME280;11799;47.740;-3.390;2024-03-23T11:17:20;102911.06;;;19.09;100.00
23261;BME280;11799;47.740;-3.390;2024-03-23T11:25:22;102890.47;;;19.21;100.00
23261;BME280;11799;47.740;-3.390;2024-03-23T11:27:58;102892.75;;;19.26;100.00
23261;BME280;11799;47.740;-3.390;2024-03-23T11:30:27;102878.38;;;19.27;100.00
23261;BME280;11799;47.740;-3.390;2024-03-23T11:32:55;102866.44;;;19.31;100.00
23261;BME280;11799;47.740;-3.390;2024-03-23T11:35:40;102854.50;;;19.35;100.00
23261;BME280;11799;47.740;-3.390;2024-03-23T11:38:09;102849.63;;;19.40;100.00
23261;BME280;11799;47.740;-3.390;2024-03-23T11:40:45;102846.56;;;19.44;100.00
23261;BME280;11799;47.740;-3.390;2024-03-23T11:43:16;102857.16;;;19.46;100.00
23261;BME280;11799;47.740;-3.390;2024-03-23T11:45:49;102856.03;;;19.49;100.00
23261;BME280;11799;47.740;-3.390;2024-03-23T11:48:21;102843.28;;;19.52;100.00
23261;BME280;11799;47.740;-3.390;2024-03-23T11:50:55;102844.72;;;19.56;100.00
23261;BME280;11799;47.740;-3.390;2024-03-23T11:53:22;102840.78;;;19.60;100.00
23261;BME280;11799;47.740;-3.390;2024-03-23T11:55:50;102837.00;;;19.63;100.00
23261;BME280;11799;47.740;-3.390;2024-03-23T11:58:17;102824.47;;;19.63;100.00
23261;BME280;11799;47.740;-3.390;2024-03-23T12:01:09;102819.94;;;19.64;100.00
23261;BME280;11799;47.740;-3.390;2024-03-23T12:03:35;102818.81;;;19.66;100.00
23261;BME280;11799;47.740;-3.390;2024-03-23T12:06:02;102804.69;;;19.64;100.00
23261;BME280;11799;47.740;-3.390;2024-03-23T12:11:05;102810.25;;;19.72;100.00
23261;BME280;11799;47.740;-3.390;2024-03-23T12:13:31;102800.38;;;19.73;100.00
23261;BME280;11799;47.740;-3.390;2024-03-23T12:16:09;102802.91;;;19.74;100.00
23261;BME280;11799;47.740;-3.390;2024-03-23T12:18:36;102802.66;;;19.77;100.00
23261;BME280;11799;47.740;-3.390;2024-03-23T12:21:02;102802.53;;;19.79;100.00
23261;BME280;11799;47.740;-3.390;2024-03-23T12:23:28;102789.00;;;19.81;100.00
23261;BME280;11799;47.740;-3.390;2024-03-23T12:25:53;102793.25;;;19.83;100.00
23261;BME280;11799;47.740;-3.390;2024-03-23T12:28:19;102784.34;;;19.83;100.00
23261;BME280;11799;47.740;-3.390;2024-03-23T12:30:44;102786.91;;;19.84;100.00
23261;BME280;11799;47.740;-3.390;2024-03-23T12:33:10;102782.97;;;19.88;100.00
23261;BME280;11799;47.740;-3.390;2024-03-23T12:35:35;102777.34;;;19.91;100.00
23261;BME280;11799;47.740;-3.390;2024-03-23T12:38:01;102771.00;;;19.92;100.00
23261;BME280;11799;47.740;-3.390;2024-03-23T12:40:26;102763.53;;;19.96;100.00
23261;BME280;11799;47.740;-3.390;2024-03-23T12:42:53;102747.59;;;19.94;100.00
23261;BME280;11799;47.740;-3.390;2024-03-23T12:45:19;102761.56;;;19.98;100.00
23261;BME280;11799;47.740;-3.390;2024-03-23T12:47:44;102750.00;;;19.97;100.00
23261;BME280;11799;47.740;-3.390;2024-03-23T12:50:10;102739.41;;;19.96;100.00
23261;BME280;11799;47.740;-3.390;2024-03-23T12:52:37;102740.72;;;20.01;100.00
23261;BME280;11799;47.740;-3.390;2024-03-23T12:55:03;102731.81;;;20.01;100.00
23261;BME280;11799;47.740;-3.390;2024-03-23T12:57:31;102729.00;;;20.02;100.00
23261;BME280;11799;47.740;-3.390;2024-03-23T12:59:57;102723.78;;;20.01;100.00
23261;BME280;11799;47.740;-3.390;2024-03-23T13:02:23;102720.25;;;20.00;100.00
23261;BME280;11799;47.740;-3.390;2024-03-23T13:04:54;102737.44;;;19.98;100.00
23261;BME280;11799;47.740;-3.390;2024-03-23T13:07:21;102733.34;;;19.94;100.00
23261;BME280;11799;47.740;-3.390;2024-03-23T13:09:50;102736.28;;;19.91;100.00
23261;BME280;11799;47.740;-3.390;2024-03-23T13:12:15;102733.78;;;19.99;100.00
23261;BME280;11799;47.740;-3.390;2024-03-23T13:14:41;102726.59;;;19.99;100.00
23261;BME280;11799;47.740;-3.390;2024-03-23T13:17:07;102709.50;;;20.00;100.00
23261;BME280;11799;47.740;-3.390;2024-03-23T13:19:33;102703.44;;;19.98;100.00
23261;BME280;11799;47.740;-3.390;2024-03-23T13:21:59;102699.06;;;19.97;100.00
23261;BME280;11799;47.740;-3.390;2024-03-23T13:24:26;102688.59;;;19.94;100.00
23261;BME280;11799;47.740;-3.390;2024-03-23T13:26:52;102690.69;;;19.91;100.00
23261;BME280;11799;47.740;-3.390;2024-03-23T13:29:21;102681.94;;;19.89;100.00
23261;BME280;11799;47.740;-3.390;2024-03-23T13:31:51;102690.13;;;19.87;100.00
23261;BME280;11799;47.740;-3.390;2024-03-23T13:34:18;102679.06;;;19.81;100.00
23261;BME280;11799;47.740;-3.390;2024-03-23T13:36:44;102688.56;;;19.85;100.00
23261;BME280;11799;47.740;-3.390;2024-03-23T13:39:10;102680.66;;;19.83;100.00